createdAt,value
2023-05-28T00:01:30.230Z,10.94
2023-05-28T00:06:31.961Z,10.93
2023-05-28T00:11:33.783Z,10.91
2023-05-28T00:16:38.662Z,10.88
2023-05-28T00:21:40.523Z,10.88
2023-05-28T00:26:42.249Z,10.83
2023-05-28T00:31:44.095Z,10.77
2023-05-28T00:36:46.097Z,10.72
2023-05-28T00:41:48.090Z,10.63
2023-05-28T00:46:50.597Z,10.52
2023-05-28T00:51:53.175Z,10.39
2023-05-28T00:56:55.362Z,10.25
2023-05-28T01:01:58.288Z,10.12
2023-05-28T01:07:01.229Z,10.06
2023-05-28T01:12:04.757Z,9.96
2023-05-28T01:17:07.406Z,9.89
2023-05-28T01:22:16.730Z,9.84
2023-05-28T01:27:19.624Z,9.79
2023-05-28T01:32:21.545Z,9.74
2023-05-28T01:37:25.778Z,9.72
2023-05-28T01:42:29.270Z,9.67
2023-05-28T01:47:41.917Z,9.59
2023-05-28T01:52:45.375Z,9.54
2023-05-28T01:57:47.188Z,9.53
2023-05-28T02:02:49.177Z,9.51
2023-05-28T02:07:53.531Z,9.44
2023-05-28T02:12:55.774Z,9.38
2023-05-28T02:17:57.693Z,9.32
2023-05-28T02:22:59.951Z,9.30
2023-05-28T02:28:01.805Z,9.30
2023-05-28T02:33:04.541Z,9.34
2023-05-28T02:38:07.089Z,9.33
2023-05-28T02:43:08.922Z,9.32
2023-05-28T02:48:10.841Z,9.33
2023-05-28T02:53:12.722Z,9.36
2023-05-28T02:58:15.747Z,9.34
2023-05-28T03:03:17.938Z,9.41
2023-05-28T03:08:20.137Z,9.55
2023-05-28T03:13:22.053Z,9.92
2023-05-28T03:18:24.141Z,10.30
2023-05-28T03:23:26.057Z,10.59
2023-05-28T03:28:40.220Z,10.85
2023-05-28T03:33:57.841Z,11.21
2023-05-28T03:38:59.504Z,11.86
2023-05-28T03:44:01.637Z,12.40
2023-05-28T03:49:03.881Z,13.19
2023-05-28T03:54:05.990Z,14.15
2023-05-28T03:59:07.820Z,14.56
2023-05-28T04:07:13.293Z,14.89
2023-05-28T04:12:15.175Z,15.34
2023-05-28T04:17:17.287Z,15.84
2023-05-28T04:22:19.061Z,16.73
2023-05-28T04:27:22.430Z,17.96
2023-05-28T04:32:25.195Z,18.70
2023-05-28T04:37:26.930Z,19.70
2023-05-28T04:42:29.296Z,20.56
2023-05-28T04:47:31.328Z,20.48
2023-05-28T04:52:36.672Z,20.91
2023-05-28T04:57:38.502Z,21.66
2023-05-28T05:02:42.861Z,22.08
2023-05-28T05:07:44.971Z,22.11
2023-05-28T05:12:48.678Z,22.52
2023-05-28T05:17:50.538Z,22.80
2023-05-28T05:22:52.381Z,22.71
2023-05-28T05:27:54.533Z,21.89
2023-05-28T05:32:56.395Z,20.66
2023-05-28T05:37:59.750Z,20.08
2023-05-28T05:43:24.069Z,20.46
2023-05-28T05:48:28.973Z,21.23
2023-05-28T05:53:30.916Z,21.71
2023-05-28T05:58:33.534Z,22.32
2023-05-28T06:03:36.359Z,23.46
2023-05-28T06:08:57.198Z,24.10
2023-05-28T06:14:11.282Z,24.81
2023-05-28T06:19:13.107Z,24.97
2023-05-28T06:24:15.067Z,24.75
2023-05-28T06:29:19.597Z,24.23
2023-05-28T06:34:21.425Z,23.88
2023-05-28T06:39:23.901Z,23.72
2023-05-28T06:44:27.545Z,23.83
2023-05-28T06:49:32.718Z,23.33
2023-05-28T06:54:34.600Z,22.77
2023-05-28T06:59:36.523Z,22.21
2023-05-28T07:04:45.376Z,21.75
2023-05-28T07:09:51.860Z,21.56
2023-05-28T07:14:54.947Z,21.77
2023-05-28T07:19:58.244Z,21.94
2023-05-28T07:25:21.533Z,22.24
2023-05-28T07:30:23.325Z,22.39
2023-05-28T07:35:29.339Z,22.22
2023-05-28T07:40:31.118Z,22.31
2023-05-28T07:45:45.100Z,22.58
2023-05-28T07:50:47.137Z,22.67
2023-05-28T07:56:01.582Z,22.80
2023-05-28T08:01:10.184Z,22.81
2023-05-28T08:06:12.674Z,22.98
2023-05-28T08:11:15.619Z,22.87
2023-05-28T08:16:26.681Z,22.09
2023-05-28T08:21:47.556Z,21.97
2023-05-28T08:26:50.153Z,22.49
2023-05-28T08:31:52.625Z,22.55
2023-05-28T08:37:12.020Z,22.75
2023-05-28T08:42:29.747Z,22.86
2023-05-28T08:47:34.315Z,22.55
2023-05-28T08:52:45.888Z,22.46
2023-05-28T08:57:48.432Z,22.58
2023-05-28T09:02:50.973Z,22.94
2023-05-28T09:07:54.060Z,23.41
2023-05-28T09:13:01.197Z,23.50
2023-05-28T09:18:06.207Z,23.49
2023-05-28T09:23:09.821Z,23.61
2023-05-28T09:28:30.959Z,23.58
2023-05-28T09:33:43.281Z,23.44
2023-05-28T09:38:45.435Z,23.37
2023-05-28T09:43:55.800Z,23.50
2023-05-28T09:48:58.033Z,23.88
2023-05-28T09:54:01.858Z,24.37
2023-05-28T09:59:04.185Z,24.80
2023-05-28T10:04:09.904Z,24.67
2023-05-28T10:09:15.854Z,25.17
2023-05-28T10:14:18.597Z,25.70
2023-05-28T10:19:21.433Z,26.35
2023-05-28T10:24:23.722Z,26.55
2023-05-28T10:29:38.330Z,26.06
2023-05-28T10:34:40.110Z,25.64
2023-05-28T10:39:48.882Z,25.43
2023-05-28T10:45:11.588Z,25.24
2023-05-28T10:50:18.739Z,24.86
2023-05-28T10:55:21.721Z,25.10
2023-05-28T11:00:25.662Z,25.11
2023-05-28T11:05:27.461Z,25.40
2023-05-28T11:10:31.132Z,25.84
2023-05-28T11:15:34.255Z,25.91
2023-05-28T11:20:36.543Z,25.95
2023-05-28T11:25:43.278Z,26.12
2023-05-28T11:30:44.962Z,25.85
2023-05-28T11:35:46.701Z,26.16
2023-05-28T11:40:48.422Z,26.23
2023-05-28T11:45:51.170Z,26.79
2023-05-28T11:51:02.103Z,26.68
2023-05-28T11:56:04.103Z,25.94
2023-05-28T12:01:06.142Z,26.01
2023-05-28T12:06:07.938Z,26.47
2023-05-28T12:11:10.725Z,27.14
2023-05-28T12:16:14.050Z,27.62
2023-05-28T12:21:20.300Z,27.20
2023-05-28T12:26:22.935Z,26.87
2023-05-28T12:31:30.978Z,26.99
2023-05-28T12:36:34.118Z,26.81
2023-05-28T12:41:36.394Z,27.09
2023-05-28T12:46:38.264Z,27.41
2023-05-28T12:51:40.628Z,27.38
2023-05-28T12:56:42.621Z,27.35
2023-05-28T13:01:44.764Z,27.36
2023-05-28T13:06:46.596Z,27.29
2023-05-28T13:11:48.482Z,27.04
2023-05-28T13:16:50.211Z,27.13
2023-05-28T13:21:52.318Z,27.27
2023-05-28T13:26:54.047Z,26.99
2023-05-28T13:31:55.814Z,27.21
2023-05-28T13:36:57.649Z,27.50
2023-05-28T13:41:59.970Z,26.99
2023-05-28T13:47:03.116Z,26.94
2023-05-28T13:52:05.845Z,26.98
2023-05-28T13:57:07.671Z,26.79
2023-05-28T14:02:09.412Z,26.67
2023-05-28T14:07:11.462Z,26.90
2023-05-28T14:12:19.871Z,27.52
2023-05-28T14:17:23.928Z,27.44
2023-05-28T14:22:26.473Z,27.36
2023-05-28T14:27:28.510Z,28.07
2023-05-28T14:32:30.532Z,28.52
2023-05-28T14:37:32.432Z,28.21
2023-05-28T14:42:34.303Z,28.02
2023-05-28T14:47:36.552Z,27.89
2023-05-28T14:52:38.725Z,27.71
2023-05-28T14:57:40.725Z,27.54
2023-05-28T15:02:43.248Z,27.49
2023-05-28T15:07:45.177Z,27.07
2023-05-28T15:12:46.991Z,26.83
2023-05-28T15:17:48.697Z,26.74
2023-05-28T15:22:50.456Z,26.92
2023-05-28T15:27:55.520Z,26.93
2023-05-28T15:32:59.473Z,27.30
2023-05-28T15:38:01.583Z,27.65
2023-05-28T15:43:07.202Z,27.43
2023-05-28T15:48:09.030Z,27.83
2023-05-28T15:53:11.257Z,28.31
2023-05-28T15:58:13.390Z,28.32
2023-05-28T16:03:16.217Z,28.02
2023-05-28T16:08:18.569Z,27.47
2023-05-28T16:13:25.124Z,27.05
2023-05-28T16:18:29.442Z,26.46
2023-05-28T16:23:32.409Z,26.20
2023-05-28T16:28:34.776Z,26.18
2023-05-28T16:33:36.574Z,26.08
2023-05-28T16:38:38.502Z,25.78
2023-05-28T16:43:40.993Z,25.47
2023-05-28T16:48:43.231Z,25.28
2023-05-28T16:53:45.176Z,25.23
2023-05-28T16:58:48.309Z,24.97
2023-05-28T17:03:50.509Z,24.41
2023-05-28T17:08:52.510Z,23.86
2023-05-28T17:13:54.325Z,23.47
2023-05-28T17:18:56.438Z,23.30
2023-05-28T17:23:58.965Z,23.29
2023-05-28T17:29:00.896Z,23.28
2023-05-28T17:34:03.022Z,23.03
2023-05-28T17:39:05.106Z,22.74
2023-05-28T17:44:08.115Z,22.44
2023-05-28T17:49:09.848Z,22.08
2023-05-28T17:54:12.702Z,21.78
2023-05-28T17:59:15.007Z,21.25
2023-05-28T18:04:16.818Z,20.66
2023-05-28T18:09:20.209Z,20.16
2023-05-28T18:14:22.054Z,19.69
2023-05-28T18:19:23.871Z,19.43
2023-05-28T18:24:25.841Z,19.08
2023-05-28T18:29:27.579Z,18.65
2023-05-28T18:34:29.293Z,18.22
2023-05-28T18:39:31.031Z,17.87
2023-05-28T18:44:33.469Z,17.54
2023-05-28T18:49:37.280Z,17.28
2023-05-28T18:54:38.999Z,17.04
2023-05-28T18:59:42.248Z,16.79
2023-05-28T19:04:44.220Z,16.56
2023-05-28T19:09:47.492Z,16.35
2023-05-28T19:14:49.889Z,16.15
2023-05-28T19:19:51.665Z,15.90
2023-05-28T19:25:01.028Z,15.68
2023-05-28T19:30:04.866Z,15.49
2023-05-28T19:35:07.284Z,15.33
2023-05-28T19:40:09.879Z,15.18
2023-05-28T19:45:12.348Z,15.05
2023-05-28T19:50:14.081Z,14.93
2023-05-28T19:55:16.009Z,14.76
2023-05-28T20:00:18.223Z,14.61
2023-05-28T20:05:20.018Z,14.47
2023-05-28T20:10:21.853Z,14.33
2023-05-28T20:15:23.746Z,14.23
2023-05-28T20:20:26.023Z,14.12
2023-05-28T20:25:30.142Z,13.99
2023-05-28T20:30:32.409Z,13.87
2023-05-28T20:35:34.433Z,13.74
2023-05-28T20:40:36.230Z,13.62
2023-05-28T20:45:39.817Z,13.52
2023-05-28T20:50:41.868Z,13.48
2023-05-28T20:55:43.629Z,13.45
2023-05-28T21:00:45.316Z,13.34
2023-05-28T21:05:47.062Z,13.20
2023-05-28T21:10:53.908Z,13.22
2023-05-28T21:16:02.541Z,13.61
2023-05-28T21:21:04.540Z,13.79
2023-05-28T21:26:06.281Z,13.84
2023-05-28T21:31:08.068Z,13.86
2023-05-28T21:36:10.136Z,13.82
2023-05-28T21:41:15.692Z,13.72
2023-05-28T21:46:18.725Z,13.57
2023-05-28T21:51:21.873Z,13.39
2023-05-28T21:56:23.622Z,13.21
2023-05-28T22:01:25.699Z,13.02
2023-05-28T22:06:27.509Z,12.85
2023-05-28T22:11:29.338Z,12.72
2023-05-28T22:16:32.111Z,12.59
2023-05-28T22:21:33.950Z,12.48
2023-05-28T22:26:35.792Z,12.39
2023-05-28T22:31:37.550Z,12.30
2023-05-28T22:36:39.538Z,12.22
2023-05-28T22:41:41.344Z,12.10
2023-05-28T22:46:43.190Z,11.97
2023-05-28T22:51:46.101Z,11.85
2023-05-28T22:56:48.198Z,11.77
2023-05-28T23:01:50.668Z,11.67
2023-05-28T23:06:52.943Z,11.57
2023-05-28T23:11:56.040Z,11.58
2023-05-28T23:16:58.885Z,11.63
2023-05-28T23:22:00.700Z,11.67
2023-05-28T23:27:02.717Z,11.75
2023-05-28T23:32:06.663Z,11.76
2023-05-28T23:37:08.388Z,11.74
2023-05-28T23:42:11.115Z,11.71
2023-05-28T23:47:15.407Z,11.64
2023-05-28T23:52:19.840Z,11.54
2023-05-28T23:57:21.637Z,11.45
